Time,TemperatureF,DewpointF,PressureIn,WindDirection,WindDirectionDegrees,WindSpeedMPH,WindSpeedGustMPH,Humidity,HourlyPrecipIn,Conditions,Clouds,dailyrainin,SoftwareType,DateUTC
2013-07-05 00:08:00,79.3,56.8,30.26,SSE,151,7.0,12.0,46,0.00,CLR,,0.00,WeatherDisplay:10.37,2013-07-05 04:08:00,
2013-07-05 00:18:00,79.0,57.0,30.26,SE,143,7.0,11.0,47,0.00,CLR,,0.00,WeatherDisplay:10.37,2013-07-05 04:18:00,
2013-07-05 00:28:00,78.6,57.3,30.26,SSE,148,3.0,9.0,48,0.00,CLR,,0.00,WeatherDisplay:10.37,2013-07-05 04:28:00,
2013-07-05 00:38:00,78.6,57.9,30.26,SSE,153,6.0,11.0,49,0.00,CLR,,0.00,WeatherDisplay:10.37,2013-07-05 04:38:00,
2013-07-05 00:48:00,78.3,58.1,30.26,SSE,147,7.0,10.0,50,0.00,CLR,,0.00,WeatherDisplay:10.37,2013-07-05 04:48:00,
2013-07-05 00:58:00,78.1,58.5,30.26,SE,145,8.0,12.0,51,0.00,CLR,,0.00,WeatherDisplay:10.37,2013-07-05 04:58:00,
2013-07-05 01:08:00,78.3,58.6,30.26,SSE,155,8.0,13.0,51,0.00,CLR,,0.00,WeatherDisplay:10.37,2013-07-05 05:08:00,
2013-07-05 01:18:00,78.3,58.6,30.26,SSE,159,8.0,12.0,51,0.00,CLR,,0.00,WeatherDisplay:10.37,2013-07-05 05:18:00,
2013-07-05 01:28:00,78.0,58.4,30.26,SSE,165,7.0,12.0,51,0.00,CLR,,0.00,WeatherDisplay:10.37,2013-07-05 05:28:00,
2013-07-05 01:38:00,77.7,58.7,30.26,South,170,6.0,12.0,52,0.00,CLR,,0.00,WeatherDisplay:10.37,2013-07-05 05:38:00,
2013-07-05 01:48:00,77.7,58.1,30.26,SSE,160,7.0,12.0,51,0.00,CLR,,0.00,WeatherDisplay:10.37,2013-07-05 05:48:00,
2013-07-05 01:58:00,77.4,58.9,30.26,SSE,158,8.0,12.0,53,0.00,CLR,,0.00,WeatherDisplay:10.37,2013-07-05 05:58:00,
2013-07-05 02:08:00,77.2,59.2,30.26,SSE,166,6.0,9.0,54,0.00,CLR,,0.00,WeatherDisplay:10.37,2013-07-05 06:08:00,
2013-07-05 02:18:00,77.2,59.2,30.26,SSE,163,6.0,13.0,54,0.00,CLR,,0.00,WeatherDisplay:10.37,2013-07-05 06:18:00,
2013-07-05 02:28:00,77.0,59.6,30.26,SSE,163,5.0,9.0,55,0.00,CLR,,0.00,WeatherDisplay:10.37,2013-07-05 06:28:00,
2013-07-05 02:38:00,76.8,59.4,30.26,SSE,165,3.0,8.0,55,0.00,CLR,,0.00,WeatherDisplay:10.37,2013-07-05 06:38:00,
2013-07-05 02:48:00,76.1,58.8,30.26,SE,134,2.0,6.0,55,0.00,CLR,,0.00,WeatherDisplay:10.37,2013-07-05 06:48:00,
2013-07-05 02:58:00,75.6,58.8,30.26,ESE,110,2.0,6.0,56,0.00,CLR,,0.00,WeatherDisplay:10.37,2013-07-05 06:58:00,
2013-07-05 03:08:00,75.2,59.4,30.26,SE,132,3.0,5.0,58,0.00,CLR,,0.00,WeatherDisplay:10.37,2013-07-05 07:08:00,
2013-07-05 03:18:00,75.2,60.4,30.26,SE,142,3.0,9.0,60,0.00,CLR,,0.00,WeatherDisplay:10.37,2013-07-05 07:18:00,
2013-07-05 03:28:00,75.2,61.3,30.26,SE,144,6.0,8.0,62,0.00,CLR,,0.00,WeatherDisplay:10.37,2013-07-05 07:28:00,
2013-07-05 03:38:00,75.2,61.7,30.26,SE,136,5.0,8.0,63,0.00,CLR,,0.00,WeatherDisplay:10.37,2013-07-05 07:38:00,
2013-07-05 03:48:00,74.8,61.4,30.26,SE,135,5.0,8.0,63,0.00,CLR,,0.00,WeatherDisplay:10.37,2013-07-05 07:48:00,
2013-07-05 03:58:00,74.7,61.7,30.26,SE,138,5.0,6.0,64,0.00,CLR,,0.00,WeatherDisplay:10.37,2013-07-05 07:58:00,
2013-07-05 04:08:00,74.7,62.5,30.26,SSE,147,5.0,6.0,66,0.00,CLR,,0.00,WeatherDisplay:10.37,2013-07-05 08:08:00,
2013-07-05 04:18:00,74.7,63.0,30.26,SSE,156,5.0,8.0,67,0.00,CLR,,0.00,WeatherDisplay:10.37,2013-07-05 08:18:00,
2013-07-05 04:28:00,74.7,63.4,30.26,SSE,152,3.0,8.0,68,0.00,CLR,,0.00,WeatherDisplay:10.37,2013-07-05 08:28:00,
2013-07-05 04:38:00,74.7,63.4,30.26,SSE,152,5.0,6.0,68,0.00,CLR,,0.00,WeatherDisplay:10.37,2013-07-05 08:38:00,
2013-07-05 04:48:00,74.5,63.2,30.26,SSE,150,5.0,6.0,68,0.00,CLR,,0.00,WeatherDisplay:10.37,2013-07-05 08:48:00,
2013-07-05 04:58:00,74.5,63.2,30.26,South,170,3.0,7.0,68,0.00,CLR,,0.00,WeatherDisplay:10.37,2013-07-05 08:58:00,
2013-07-05 05:08:00,74.1,62.9,30.26,SSE,163,2.0,5.0,68,0.00,CLR,,0.00,WeatherDisplay:10.37,2013-07-05 09:08:00,
2013-07-05 05:18:00,73.7,62.0,30.26,ESE,111,2.0,4.0,67,0.00,CLR,,0.00,WeatherDisplay:10.37,2013-07-05 09:18:00,
2013-07-05 05:28:00,73.0,61.4,30.26,East,99,2.0,6.0,67,0.00,CLR,,0.00,WeatherDisplay:10.37,2013-07-05 09:28:00,
2013-07-05 05:38:00,72.1,60.6,30.26,ESE,103,3.0,4.0,67,0.00,CLR,,0.00,WeatherDisplay:10.37,2013-07-05 09:38:00,
2013-07-05 05:48:00,72.4,61.6,30.26,ESE,114,5.0,6.0,69,0.00,CLR,,0.00,WeatherDisplay:10.37,2013-07-05 09:48:00,
2013-07-05 05:58:00,72.9,62.9,30.26,ESE,112,5.0,6.0,71,0.00,CLR,,0.00,WeatherDisplay:10.37,2013-07-05 09:58:00,
2013-07-05 06:08:00,73.0,63.9,30.26,East,89,3.0,6.0,73,0.00,CLR,,0.00,WeatherDisplay:10.37,2013-07-05 10:08:00,
2013-07-05 06:18:00,73.0,63.9,30.26,East,92,6.0,8.0,73,0.00,CLR,,0.00,WeatherDisplay:10.37,2013-07-05 10:18:00,
2013-07-05 06:28:00,72.9,64.1,30.26,East,94,5.0,8.0,74,0.00,CLR,,0.00,WeatherDisplay:10.37,2013-07-05 10:28:00,
2013-07-05 06:38:00,72.7,64.3,30.26,East,100,3.0,7.0,75,0.00,CLR,,0.00,WeatherDisplay:10.37,2013-07-05 10:38:00,
2013-07-05 06:48:00,72.7,64.3,30.26,East,92,6.0,8.0,75,0.00,CLR,,0.00,WeatherDisplay:10.37,2013-07-05 10:48:00,
2013-07-05 06:58:00,72.9,64.8,30.26,East,92,7.0,9.0,76,0.00,CLR,,0.00,WeatherDisplay:10.37,2013-07-05 10:58:00,
2013-07-05 07:08:00,72.7,65.1,30.26,East,82,7.0,9.0,77,0.00,CLR,,0.00,WeatherDisplay:10.37,2013-07-05 11:08:00,
2013-07-05 07:18:00,72.9,65.6,30.26,East,88,6.0,9.0,78,0.00,CLR,,0.00,WeatherDisplay:10.37,2013-07-05 11:18:00,
2013-07-05 07:28:00,73.0,66.1,30.26,East,93,5.0,9.0,79,0.00,CLR,,0.00,WeatherDisplay:10.37,2013-07-05 11:28:00,
2013-07-05 07:38:00,73.4,66.1,30.26,East,91,5.0,9.0,78,0.00,CLR,,0.00,WeatherDisplay:10.37,2013-07-05 11:38:00,
2013-07-05 07:48:00,73.8,66.5,30.26,East,89,3.0,6.0,78,0.00,CLR,,0.00,WeatherDisplay:10.37,2013-07-05 11:48:00,
2013-07-05 07:58:00,74.1,66.4,30.26,East,86,6.0,8.0,77,0.00,CLR,,0.00,WeatherDisplay:10.37,2013-07-05 11:58:00,
2013-07-05 08:18:00,75.4,65.7,30.26,East,87,5.0,6.0,72,0.00,CLR,,0.00,WeatherDisplay:10.37,2013-07-05 12:18:00,
2013-07-05 08:28:00,76.2,66.5,30.26,East,100,2.0,6.0,72,0.00,CLR,,0.00,WeatherDisplay:10.37,2013-07-05 12:28:00,
2013-07-05 08:48:00,76.8,64.6,30.26,East,94,5.0,8.0,66,0.00,CLR,,0.00,WeatherDisplay:10.37,2013-07-05 12:48:00,
2013-07-05 08:58:00,77.0,64.3,30.26,SSE,157,6.0,6.0,65,0.00,CLR,,0.00,WeatherDisplay:10.37,2013-07-05 12:58:00,
2013-07-05 09:08:00,77.2,63.2,30.29,SSE,156,5.0,8.0,62,0.00,CLR,,0.00,WeatherDisplay:10.37,2013-07-05 13:08:00,
2013-07-05 09:18:00,77.7,62.7,30.29,SE,144,1.0,6.0,60,0.00,CLR,,0.00,WeatherDisplay:10.37,2013-07-05 13:18:00,
2013-07-05 09:38:00,78.6,61.6,30.26,South,170,2.0,6.0,56,0.00,CLR,,0.00,WeatherDisplay:10.37,2013-07-05 13:38:00,
2013-07-05 09:48:00,79.0,60.4,30.26,South,169,6.0,8.0,53,0.00,CLR,,0.00,WeatherDisplay:10.37,2013-07-05 13:48:00,
2013-07-05 09:58:00,79.5,60.4,30.26,SSE,163,6.0,8.0,52,0.00,CLR,,0.00,WeatherDisplay:10.37,2013-07-05 13:58:00,
2013-07-05 10:08:00,80.1,59.7,30.26,SSE,159,6.0,8.0,50,0.00,CLR,,0.00,WeatherDisplay:10.37,2013-07-05 14:08:00,
2013-07-05 10:18:00,80.3,60.5,30.26,SSE,151,5.0,9.0,51,0.00,CLR,,0.00,WeatherDisplay:10.37,2013-07-05 14:18:00,
2013-07-05 10:28:00,80.6,59.1,30.26,SE,135,2.0,9.0,48,0.00,CLR,,0.00,WeatherDisplay:10.37,2013-07-05 14:28:00,
2013-07-05 10:38:00,81.3,60.3,30.26,SSE,152,5.0,11.0,49,0.00,CLR,,0.00,WeatherDisplay:10.37,2013-07-05 14:38:00,
2013-07-05 10:48:00,81.7,60.7,30.26,SSE,168,7.0,8.0,49,0.00,CLR,,0.00,WeatherDisplay:10.37,2013-07-05 14:48:00,
2013-07-05 10:58:00,82.2,58.1,30.26,SSE,155,5.0,11.0,44,0.00,CLR,,0.00,WeatherDisplay:10.37,2013-07-05 14:58:00,
2013-07-05 11:08:00,82.5,58.4,30.26,SSE,168,7.0,10.0,44,0.00,CLR,,0.00,WeatherDisplay:10.37,2013-07-05 15:08:00,
2013-07-05 11:18:00,82.8,58.0,30.26,South,174,6.0,9.0,43,0.00,CLR,,0.00,WeatherDisplay:10.37,2013-07-05 15:18:00,
2013-07-05 11:28:00,83.4,58.5,30.26,South,169,2.0,9.0,43,0.00,CLR,,0.00,WeatherDisplay:10.37,2013-07-05 15:28:00,
2013-07-05 11:38:00,83.3,58.5,30.26,South,181,6.0,10.0,43,0.00,CLR,,0.00,WeatherDisplay:10.37,2013-07-05 15:38:00,
2013-07-05 11:48:00,83.5,58.0,30.26,South,182,5.0,10.0,42,0.00,CLR,,0.00,WeatherDisplay:10.37,2013-07-05 15:48:00,
2013-07-05 11:58:00,84.1,58.6,30.26,SSW,195,5.0,8.0,42,0.00,CLR,,0.00,WeatherDisplay:10.37,2013-07-05 15:58:00,
2013-07-05 12:08:00,84.7,57.7,30.26,SSE,166,7.0,11.0,40,0.00,CLR,,0.00,WeatherDisplay:10.37,2013-07-05 16:08:00,
2013-07-05 12:18:00,84.6,57.6,30.26,South,170,8.0,12.0,40,0.00,CLR,,0.00,WeatherDisplay:10.37,2013-07-05 16:18:00,
2013-07-05 12:28:00,84.7,59.1,30.26,SSE,165,6.0,11.0,42,0.00,CLR,,0.00,WeatherDisplay:10.37,2013-07-05 16:28:00,
2013-07-05 12:38:00,85.3,58.2,30.26,South,174,7.0,10.0,40,0.00,CLR,,0.00,WeatherDisplay:10.37,2013-07-05 16:38:00,
2013-07-05 12:48:00,85.6,58.5,30.26,South,177,9.0,13.0,40,0.00,CLR,,0.00,WeatherDisplay:10.37,2013-07-05 16:48:00,
2013-07-05 12:58:00,85.2,56.0,30.26,South,174,6.0,13.0,37,0.00,CLR,,0.00,WeatherDisplay:10.37,2013-07-05 16:58:00,
2013-07-05 13:08:00,85.5,58.5,30.26,South,177,7.0,13.0,40,0.00,CLR,,0.00,WeatherDisplay:10.37,2013-07-05 17:08:00,
2013-07-05 13:18:00,86.4,57.0,30.26,South,177,7.0,13.0,37,0.00,CLR,,0.00,WeatherDisplay:10.37,2013-07-05 17:18:00,
2013-07-05 13:28:00,86.2,55.3,30.26,South,187,8.0,12.0,35,0.00,CLR,,0.00,WeatherDisplay:10.37,2013-07-05 17:28:00,
2013-07-05 13:38:00,86.9,55.9,30.23,SSE,159,6.0,13.0,35,0.00,CLR,,0.00,WeatherDisplay:10.37,2013-07-05 17:38:00,
2013-07-05 13:48:00,86.2,52.9,30.23,South,169,8.0,14.0,32,0.00,CLR,,0.00,WeatherDisplay:10.37,2013-07-05 17:48:00,
2013-07-05 13:58:00,86.4,57.8,30.23,South,170,8.0,13.0,38,0.00,CLR,,0.00,WeatherDisplay:10.37,2013-07-05 17:58:00,
2013-07-05 14:08:00,86.9,54.3,30.23,SSE,166,6.0,12.0,33,0.00,CLR,,0.00,WeatherDisplay:10.37,2013-07-05 18:08:00,
2013-07-05 14:18:00,87.4,54.8,30.23,South,178,6.0,12.0,33,0.00,CLR,,0.00,WeatherDisplay:10.37,2013-07-05 18:18:00,
2013-07-05 14:28:00,87.4,54.0,30.23,South,187,6.0,11.0,32,0.00,CLR,,0.00,WeatherDisplay:10.37,2013-07-05 18:28:00,
2013-07-05 14:38:00,87.3,53.8,30.23,South,186,7.0,11.0,32,0.00,CLR,,0.00,WeatherDisplay:10.37,2013-07-05 18:38:00,
2013-07-05 14:48:00,87.3,53.8,30.23,South,170,6.0,11.0,32,0.00,CLR,,0.00,WeatherDisplay:10.37,2013-07-05 18:48:00,
2013-07-05 14:58:00,88.2,55.4,30.23,South,179,5.0,13.0,33,0.00,CLR,,0.00,WeatherDisplay:10.37,2013-07-05 18:58:00,
2013-07-05 15:08:00,88.5,53.1,30.23,South,174,8.0,13.0,30,0.00,CLR,,0.00,WeatherDisplay:10.37,2013-07-05 19:08:00,
2013-07-05 15:18:00,87.6,54.1,30.23,South,176,9.0,12.0,32,0.00,CLR,,0.00,WeatherDisplay:10.37,2013-07-05 19:18:00,
2013-07-05 15:28:00,87.3,53.8,30.23,SSE,167,8.0,12.0,32,0.00,CLR,,0.00,WeatherDisplay:10.37,2013-07-05 19:28:00,
2013-07-05 15:38:00,87.3,53.8,30.23,South,174,8.0,12.0,32,0.00,CLR,,0.00,WeatherDisplay:10.37,2013-07-05 19:38:00,
2013-07-05 15:48:00,87.7,56.6,30.23,SSE,164,8.0,13.0,35,0.00,CLR,,0.00,WeatherDisplay:10.37,2013-07-05 19:48:00,
2013-07-05 15:58:00,88.3,54.7,30.20,South,179,8.0,13.0,32,0.00,CLR,,0.00,WeatherDisplay:10.37,2013-07-05 19:58:00,
2013-07-05 16:08:00,88.3,54.7,30.20,South,175,8.0,13.0,32,0.00,CLR,,0.00,WeatherDisplay:10.37,2013-07-05 20:08:00,
2013-07-05 16:18:00,87.3,55.5,30.20,South,176,7.0,12.0,34,0.00,CLR,,0.00,WeatherDisplay:10.37,2013-07-05 20:18:00,
2013-07-05 16:28:00,86.2,56.9,30.20,South,169,8.0,11.0,37,0.00,CLR,,0.00,WeatherDisplay:10.37,2013-07-05 20:28:00,
2013-07-05 16:38:00,86.4,54.7,30.20,SSE,167,9.0,13.0,34,0.00,CLR,,0.00,WeatherDisplay:10.37,2013-07-05 20:38:00,
2013-07-05 16:48:00,87.1,58.4,30.20,South,175,7.0,13.0,38,0.00,CLR,,0.00,WeatherDisplay:10.37,2013-07-05 20:48:00,
2013-07-05 16:58:00,88.0,56.1,30.20,South,177,7.0,13.0,34,0.00,CLR,,0.00,WeatherDisplay:10.37,2013-07-05 20:58:00,
2013-07-05 17:08:00,87.6,55.0,30.20,SSE,164,8.0,13.0,33,0.00,CLR,,0.00,WeatherDisplay:10.37,2013-07-05 21:08:00,
2013-07-05 17:18:00,87.3,53.8,30.20,SSE,156,8.0,13.0,32,0.00,CLR,,0.00,WeatherDisplay:10.37,2013-07-05 21:18:00,
2013-07-05 17:28:00,87.3,54.6,30.17,South,171,6.0,13.0,33,0.00,CLR,,0.00,WeatherDisplay:10.37,2013-07-05 21:28:00,
2013-07-05 17:38:00,87.4,54.0,30.17,South,180,7.0,12.0,32,0.00,CLR,,0.00,WeatherDisplay:10.37,2013-07-05 21:38:00,
2013-07-05 17:48:00,87.3,53.8,30.17,SSE,161,6.0,10.0,32,0.00,CLR,,0.00,WeatherDisplay:10.37,2013-07-05 21:48:00,
2013-07-05 17:58:00,87.8,54.3,30.17,South,170,7.0,10.0,32,0.00,CLR,,0.00,WeatherDisplay:10.37,2013-07-05 21:58:00,
2013-07-05 18:08:00,87.6,53.2,30.17,South,173,6.0,12.0,31,0.00,CLR,,0.00,WeatherDisplay:10.37,2013-07-05 22:08:00,
2013-07-05 18:18:00,87.6,53.2,30.17,South,178,7.0,12.0,31,0.00,CLR,,0.00,WeatherDisplay:10.37,2013-07-05 22:18:00,
2013-07-05 18:28:00,87.6,54.1,30.17,South,184,6.0,11.0,32,0.00,CLR,,0.00,WeatherDisplay:10.37,2013-07-05 22:28:00,
2013-07-05 18:38:00,87.3,52.9,30.17,South,181,10.0,13.0,31,0.00,CLR,,0.00,WeatherDisplay:10.37,2013-07-05 22:38:00,
2013-07-05 18:48:00,87.1,52.8,30.17,South,176,7.0,13.0,31,0.00,CLR,,0.00,WeatherDisplay:10.37,2013-07-05 22:48:00,
2013-07-05 18:58:00,86.5,52.3,30.17,South,179,6.0,11.0,31,0.00,CLR,,0.00,WeatherDisplay:10.37,2013-07-05 22:58:00,
2013-07-05 19:08:00,86.5,53.2,30.20,South,170,7.0,11.0,32,0.00,CLR,,0.00,WeatherDisplay:10.37,2013-07-05 23:08:00,
2013-07-05 19:18:00,86.1,52.8,30.20,South,175,8.0,11.0,32,0.00,CLR,,0.00,WeatherDisplay:10.37,2013-07-05 23:18:00,
2013-07-05 19:28:00,85.6,54.8,30.17,SSE,157,7.0,12.0,35,0.00,CLR,,0.00,WeatherDisplay:10.37,2013-07-05 23:28:00,
2013-07-05 19:38:00,85.1,55.1,30.20,SSE,157,5.0,10.0,36,0.00,CLR,,0.00,WeatherDisplay:10.37,2013-07-05 23:38:00,
2013-07-05 19:48:00,84.4,54.5,30.20,SSE,159,9.0,13.0,36,0.00,CLR,,0.00,WeatherDisplay:10.37,2013-07-05 23:48:00,
2013-07-05 19:58:00,84.0,54.9,30.20,SSE,164,8.0,12.0,37,0.00,CLR,,0.00,WeatherDisplay:10.37,2013-07-05 23:58:00,
2013-07-05 20:08:00,83.3,55.8,30.20,SSE,160,8.0,12.0,39,0.00,CLR,,0.00,WeatherDisplay:10.37,2013-07-06 00:08:00,
2013-07-05 20:18:00,82.8,56.0,30.20,SSE,157,9.0,13.0,40,0.00,CLR,,0.00,WeatherDisplay:10.37,2013-07-06 00:18:00,
2013-07-05 20:28:00,82.4,56.3,30.20,SSE,168,7.0,15.0,41,0.00,CLR,,0.00,WeatherDisplay:10.37,2013-07-06 00:28:00,
2013-07-05 20:38:00,82.2,56.8,30.20,SSE,153,9.0,12.0,42,0.00,CLR,,0.00,WeatherDisplay:10.37,2013-07-06 00:38:00,
2013-07-05 20:48:00,82.0,56.7,30.20,SSE,158,9.0,13.0,42,0.00,CLR,,0.00,WeatherDisplay:10.37,2013-07-06 00:48:00,
2013-07-05 20:58:00,81.7,57.0,30.20,SSE,161,7.0,13.0,43,0.00,CLR,,0.00,WeatherDisplay:10.37,2013-07-06 00:58:00,
2013-07-05 21:08:00,81.7,56.4,30.20,SSE,164,9.0,13.0,42,0.00,CLR,,0.00,WeatherDisplay:10.37,2013-07-06 01:08:00,
2013-07-05 21:18:00,81.3,56.7,30.20,SSE,162,6.0,11.0,43,0.00,CLR,,0.00,WeatherDisplay:10.37,2013-07-06 01:18:00,
2013-07-05 21:28:00,81.3,57.3,30.20,SSE,164,7.0,13.0,44,0.00,CLR,,0.00,WeatherDisplay:10.37,2013-07-06 01:28:00,
2013-07-05 21:38:00,81.0,57.0,30.20,SSE,167,6.0,13.0,44,0.00,CLR,,0.00,WeatherDisplay:10.37,2013-07-06 01:38:00,
2013-07-05 21:48:00,80.8,56.8,30.20,SSE,166,6.0,8.0,44,0.00,CLR,,0.00,WeatherDisplay:10.37,2013-07-06 01:48:00,
2013-07-05 21:58:00,80.6,57.9,30.23,SSE,164,5.0,10.0,46,0.00,CLR,,0.00,WeatherDisplay:10.37,2013-07-06 01:58:00,
2013-07-05 22:08:00,80.6,57.9,30.23,SSE,155,7.0,11.0,46,0.00,CLR,,0.00,WeatherDisplay:10.37,2013-07-06 02:08:00,
2013-07-05 22:18:00,80.6,57.9,30.23,SSE,166,6.0,11.0,46,0.00,CLR,,0.00,WeatherDisplay:10.37,2013-07-06 02:18:00,
2013-07-05 22:28:00,80.5,57.8,30.23,SSE,160,8.0,10.0,46,0.00,CLR,,0.00,WeatherDisplay:10.37,2013-07-06 02:28:00,
2013-07-05 22:38:00,80.2,57.6,30.23,SSE,163,7.0,8.0,46,0.00,CLR,,0.00,WeatherDisplay:10.37,2013-07-06 02:38:00,
2013-07-05 22:48:00,80.1,58.0,30.23,SSE,160,6.0,9.0,47,0.00,CLR,,0.00,WeatherDisplay:10.37,2013-07-06 02:48:00,
2013-07-05 22:58:00,80.1,58.0,30.23,SSE,163,7.0,9.0,47,0.00,CLR,,0.00,WeatherDisplay:10.37,2013-07-06 02:58:00,
2013-07-05 23:08:00,79.7,57.7,30.23,SSE,168,6.0,8.0,47,0.00,CLR,,0.00,WeatherDisplay:10.37,2013-07-06 03:08:00,
2013-07-05 23:18:00,79.2,58.4,30.23,SSE,162,3.0,9.0,49,0.00,CLR,,0.00,WeatherDisplay:10.37,2013-07-06 03:18:00,
2013-07-05 23:28:00,79.0,59.3,30.20,SSE,162,5.0,8.0,51,0.00,CLR,,0.00,WeatherDisplay:10.37,2013-07-06 03:28:00,
2013-07-05 23:38:00,78.8,59.7,30.20,South,169,3.0,8.0,52,0.00,CLR,,0.00,WeatherDisplay:10.37,2013-07-06 03:38:00,
2013-07-05 23:48:00,78.6,60.1,30.20,SSE,161,2.0,8.0,53,0.00,CLR,,0.00,WeatherDisplay:10.37,2013-07-06 03:48:00,
2013-07-05 23:58:00,78.4,60.4,30.20,South,171,5.0,8.0,54,0.00,CLR,,0.00,WeatherDisplay:10.37,2013-07-06 03:58:00,